createdAt,value
2023-05-17T00:02:01.419Z,9.00
2023-05-17T00:04:27.728Z,9.01
2023-05-17T00:06:54.044Z,9.01
2023-05-17T00:09:20.378Z,9.04
2023-05-17T00:11:46.628Z,9.10
2023-05-17T00:22:58.089Z,9.07
2023-05-17T00:25:24.344Z,9.06
2023-05-17T00:27:50.629Z,9.05
2023-05-17T00:30:16.977Z,9.05
2023-05-17T00:32:43.292Z,9.03
2023-05-17T00:35:09.627Z,9.04
2023-05-17T00:37:35.948Z,9.14
2023-05-17T00:40:02.612Z,9.12
2023-05-17T00:42:28.862Z,9.05
2023-05-17T00:44:55.128Z,9.06
2023-05-17T00:47:21.409Z,9.06
2023-05-17T00:49:47.680Z,8.96
2023-05-17T00:52:13.950Z,8.94
2023-05-17T00:54:40.257Z,8.91
2023-05-17T00:57:06.563Z,8.83
2023-05-17T00:59:32.847Z,8.78
2023-05-17T01:01:59.086Z,8.76
2023-05-17T01:04:25.351Z,8.58
2023-05-17T01:06:51.659Z,8.65
2023-05-17T01:09:17.923Z,8.68
2023-05-17T01:11:50.334Z,8.62
2023-05-17T01:14:35.191Z,8.62
2023-05-17T01:17:02.732Z,8.47
2023-05-17T01:19:40.801Z,8.50
2023-05-17T01:22:14.188Z,8.50
2023-05-17T01:24:50.643Z,8.41
2023-05-17T01:27:16.902Z,8.38
2023-05-17T01:29:43.198Z,8.39
2023-05-17T01:32:09.454Z,8.37
2023-05-17T01:34:35.719Z,8.31
2023-05-17T01:37:01.975Z,8.24
2023-05-17T01:39:28.241Z,8.11
2023-05-17T01:41:59.945Z,8.13
2023-05-17T01:44:27.553Z,8.15
2023-05-17T01:46:55.209Z,8.02
2023-05-17T01:49:23.618Z,8.07
2023-05-17T01:52:12.001Z,8.05
2023-05-17T01:54:39.545Z,8.07
2023-05-17T01:57:06.026Z,7.89
2023-05-17T01:59:32.356Z,7.85
2023-05-17T02:01:58.918Z,7.84
2023-05-17T02:04:25.238Z,7.75
2023-05-17T02:06:51.524Z,7.77
2023-05-17T02:09:17.788Z,7.77
2023-05-17T02:11:44.069Z,7.83
2023-05-17T02:14:10.321Z,7.91
2023-05-17T02:16:36.579Z,7.78
2023-05-17T02:19:02.853Z,7.79
2023-05-17T02:21:29.117Z,7.83
2023-05-17T02:23:55.367Z,7.75
2023-05-17T02:26:21.618Z,7.76
2023-05-17T02:28:47.881Z,7.68
2023-05-17T02:31:14.219Z,7.78
2023-05-17T02:33:40.628Z,7.58
2023-05-17T02:36:06.990Z,7.62
2023-05-17T02:38:33.565Z,7.60
2023-05-17T02:40:59.804Z,7.58
2023-05-17T02:43:26.053Z,7.61
2023-05-17T02:45:52.291Z,7.57
2023-05-17T02:48:18.600Z,7.62
2023-05-17T02:50:44.883Z,7.56
2023-05-17T02:53:11.142Z,7.58
2023-05-17T02:55:37.381Z,7.52
2023-05-17T02:58:03.682Z,7.58
2023-05-17T03:00:29.927Z,7.54
2023-05-17T03:02:56.314Z,7.45
2023-05-17T03:05:22.633Z,7.54
2023-05-17T03:07:48.877Z,7.55
2023-05-17T03:10:15.131Z,7.45
2023-05-17T03:12:41.392Z,7.40
2023-05-17T03:15:07.868Z,7.47
2023-05-17T03:17:34.226Z,7.48
2023-05-17T03:29:18.724Z,7.23
2023-05-17T03:31:45.004Z,7.21
2023-05-17T03:34:11.319Z,7.40
2023-05-17T03:36:38.068Z,7.45
2023-05-17T03:39:10.172Z,7.50
2023-05-17T03:41:36.435Z,7.51
2023-05-17T03:44:02.702Z,7.49
2023-05-17T03:46:28.966Z,7.45
2023-05-17T03:48:55.266Z,7.54
2023-05-17T03:51:21.556Z,7.53
2023-05-17T03:53:47.836Z,7.48
2023-05-17T03:56:14.100Z,7.59
2023-05-17T03:58:40.367Z,7.55
2023-05-17T04:01:06.610Z,7.64
2023-05-17T04:03:32.933Z,7.56
2023-05-17T04:06:05.280Z,7.57
2023-05-17T04:08:31.589Z,7.60
2023-05-17T04:10:57.829Z,7.59
2023-05-17T04:13:24.080Z,7.64
2023-05-17T04:15:50.336Z,7.63
2023-05-17T04:18:16.703Z,7.61
2023-05-17T04:20:43.017Z,7.68
2023-05-17T04:23:09.267Z,7.72
2023-05-17T04:25:35.511Z,7.72
2023-05-17T04:28:01.769Z,7.64
2023-05-17T04:30:28.010Z,7.73
2023-05-17T04:32:54.358Z,7.79
2023-05-17T04:35:20.623Z,7.66
2023-05-17T04:37:46.889Z,7.75
2023-05-17T04:40:13.271Z,7.61
2023-05-17T04:42:39.537Z,7.68
2023-05-17T04:45:06.064Z,7.70
2023-05-17T04:47:32.396Z,7.86
2023-05-17T04:49:58.694Z,7.93
2023-05-17T04:52:24.955Z,7.97
2023-05-17T04:54:51.283Z,7.92
2023-05-17T04:57:17.565Z,7.97
2023-05-17T04:59:44.606Z,8.15
2023-05-17T05:02:10.888Z,8.06
2023-05-17T05:04:37.209Z,7.98
2023-05-17T05:07:03.512Z,8.11
2023-05-17T05:09:29.796Z,8.01
2023-05-17T05:11:56.034Z,8.11
2023-05-17T05:14:22.444Z,8.16
2023-05-17T05:16:48.682Z,8.42
2023-05-17T05:19:15.141Z,8.61
2023-05-17T05:21:41.662Z,8.43
2023-05-17T05:24:08.036Z,8.43
2023-05-17T05:26:34.295Z,8.40
2023-05-17T05:29:00.580Z,8.47
2023-05-17T05:31:26.829Z,8.75
2023-05-17T05:33:53.224Z,8.71
2023-05-17T05:36:19.519Z,8.37
2023-05-17T05:38:45.790Z,8.87
2023-05-17T05:41:12.045Z,8.86
2023-05-17T05:43:38.302Z,8.67
2023-05-17T05:46:04.568Z,8.77
2023-05-17T05:48:30.958Z,8.97
2023-05-17T05:50:57.267Z,9.14
2023-05-17T05:53:23.524Z,8.89
2023-05-17T05:55:49.910Z,8.83
2023-05-17T05:58:16.192Z,8.75
2023-05-17T06:00:42.456Z,8.79
2023-05-17T06:03:08.826Z,9.37
2023-05-17T06:05:35.223Z,9.26
2023-05-17T06:08:01.550Z,9.50
2023-05-17T06:10:27.962Z,9.05
2023-05-17T06:12:54.393Z,9.63
2023-05-17T06:15:20.808Z,9.48
2023-05-17T06:17:47.158Z,8.85
2023-05-17T06:20:13.482Z,8.92
2023-05-17T06:22:39.734Z,9.79
2023-05-17T06:25:06.091Z,11.20
2023-05-17T06:27:32.363Z,10.52
2023-05-17T06:29:58.631Z,9.62
2023-05-17T06:32:25.050Z,9.19
2023-05-17T06:34:51.339Z,9.08
2023-05-17T06:37:18.622Z,8.95
2023-05-17T06:39:51.550Z,8.99
2023-05-17T06:42:26.481Z,9.17
2023-05-17T06:44:52.733Z,9.47
2023-05-17T06:47:19.011Z,9.18
2023-05-17T06:49:45.313Z,9.26
2023-05-17T06:52:11.623Z,9.53
2023-05-17T06:54:37.889Z,9.48
2023-05-17T06:57:04.289Z,9.80
2023-05-17T06:59:30.546Z,10.13
2023-05-17T07:01:56.810Z,10.12
2023-05-17T07:04:23.171Z,9.91
2023-05-17T07:06:49.508Z,9.38
2023-05-17T07:09:15.765Z,9.36
2023-05-17T07:11:42.120Z,9.22
2023-05-17T07:14:08.405Z,9.48
2023-05-17T07:16:34.653Z,9.52
2023-05-17T07:19:00.971Z,9.45
2023-05-17T07:21:27.265Z,9.65
2023-05-17T07:23:53.532Z,9.75
2023-05-17T07:26:19.781Z,9.75
2023-05-17T07:28:46.141Z,9.33
2023-05-17T07:31:12.397Z,9.39
2023-05-17T07:33:38.673Z,9.33
2023-05-17T07:36:05.442Z,9.08
2023-05-17T07:38:31.737Z,8.90
2023-05-17T07:40:57.990Z,9.05
2023-05-17T07:43:24.249Z,9.27
2023-05-17T07:45:50.500Z,9.36
2023-05-17T07:48:16.898Z,9.36
2023-05-17T07:50:43.720Z,9.46
2023-05-17T07:53:10.032Z,9.70
2023-05-17T07:55:36.355Z,10.95
2023-05-17T07:58:02.662Z,10.30
2023-05-17T08:00:28.918Z,10.11
2023-05-17T08:02:56.096Z,9.73
2023-05-17T08:05:22.387Z,9.62
2023-05-17T08:07:48.668Z,9.41
2023-05-17T08:10:14.931Z,9.73
2023-05-17T08:12:41.200Z,9.60
2023-05-17T08:15:07.522Z,9.83
2023-05-17T08:17:33.876Z,9.45
2023-05-17T08:20:00.257Z,9.38
2023-05-17T08:22:26.513Z,9.43
2023-05-17T08:24:52.798Z,9.55
2023-05-17T08:27:19.047Z,10.01
2023-05-17T08:29:48.108Z,10.45
2023-05-17T08:32:14.341Z,9.98
2023-05-17T08:34:40.628Z,10.05
2023-05-17T08:37:06.919Z,9.84
2023-05-17T08:39:33.203Z,9.67
2023-05-17T08:41:59.818Z,9.99
2023-05-17T08:44:26.805Z,10.06
2023-05-17T08:46:53.068Z,11.19
2023-05-17T08:49:22.495Z,11.59
2023-05-17T08:51:53.118Z,10.94
2023-05-17T08:54:19.377Z,10.65
2023-05-17T08:56:45.645Z,10.29
2023-05-17T08:59:11.921Z,10.61
2023-05-17T09:01:39.100Z,11.16
2023-05-17T09:04:05.505Z,11.18
2023-05-17T09:06:31.803Z,10.93
2023-05-17T09:08:58.065Z,10.92
2023-05-17T09:11:24.845Z,10.54
2023-05-17T09:13:51.140Z,10.62
2023-05-17T09:16:17.447Z,10.93
2023-05-17T09:18:43.885Z,11.10
2023-05-17T09:21:10.203Z,12.18
2023-05-17T09:23:37.686Z,12.08
2023-05-17T09:26:07.225Z,12.07
2023-05-17T09:28:37.698Z,11.74
2023-05-17T09:31:07.224Z,11.41
2023-05-17T09:33:33.674Z,12.21
2023-05-17T09:36:00.825Z,11.89
2023-05-17T09:38:27.080Z,11.98
2023-05-17T09:40:53.370Z,11.50
2023-05-17T09:43:23.084Z,11.44
2023-05-17T09:45:54.943Z,11.32
2023-05-17T09:48:21.295Z,11.35
2023-05-17T09:50:48.133Z,12.08
2023-05-17T09:53:24.240Z,13.16
2023-05-17T09:55:56.522Z,12.60
2023-05-17T09:58:26.850Z,12.20
2023-05-17T10:00:53.717Z,11.68
2023-05-17T10:03:20.411Z,11.22
2023-05-17T10:05:46.758Z,11.97
2023-05-17T10:08:13.278Z,11.70
2023-05-17T10:10:39.979Z,11.67
2023-05-17T10:13:08.555Z,11.54
2023-05-17T10:15:35.035Z,11.42
2023-05-17T10:18:03.182Z,11.52
2023-05-17T10:20:29.698Z,11.29
2023-05-17T10:22:58.419Z,11.86
2023-05-17T10:25:24.909Z,13.11
2023-05-17T10:27:51.184Z,13.33
2023-05-17T10:30:17.649Z,11.89
2023-05-17T10:32:47.045Z,11.62
2023-05-17T10:35:13.349Z,12.69
2023-05-17T10:37:39.838Z,13.25
2023-05-17T10:40:06.371Z,12.34
2023-05-17T10:42:32.623Z,12.21
2023-05-17T10:45:00.377Z,12.07
2023-05-17T10:47:33.025Z,12.27
2023-05-17T10:49:59.338Z,13.26
2023-05-17T10:52:25.730Z,13.37
2023-05-17T10:54:51.998Z,13.95
2023-05-17T10:57:21.832Z,14.13
2023-05-17T11:00:00.955Z,13.43
2023-05-17T11:02:27.616Z,12.88
2023-05-17T11:04:57.476Z,13.23
2023-05-17T11:07:29.898Z,13.76
2023-05-17T11:10:02.206Z,13.52
2023-05-17T11:12:35.444Z,13.73
2023-05-17T11:15:08.412Z,13.99
2023-05-17T11:17:35.781Z,14.80
2023-05-17T11:20:02.745Z,14.07
2023-05-17T11:22:34.581Z,13.44
2023-05-17T11:25:01.139Z,13.62
2023-05-17T11:27:27.428Z,13.45
2023-05-17T11:29:54.036Z,13.87
2023-05-17T11:32:33.663Z,14.05
2023-05-17T11:35:00.182Z,12.57
2023-05-17T11:37:30.014Z,12.84
2023-05-17T11:43:16.959Z,13.31
2023-05-17T11:46:02.592Z,13.49
2023-05-17T11:48:30.285Z,13.46
2023-05-17T11:50:56.651Z,13.02
2023-05-17T11:53:25.013Z,13.46
2023-05-17T11:55:51.596Z,13.72
2023-05-17T11:58:18.998Z,13.56
2023-05-17T12:00:45.296Z,13.83
2023-05-17T12:03:18.272Z,14.09
2023-05-17T12:05:44.529Z,13.10
2023-05-17T12:08:10.785Z,12.94
2023-05-17T12:10:37.047Z,13.03
2023-05-17T12:13:03.836Z,12.59
2023-05-17T12:15:30.086Z,12.86
2023-05-17T12:17:56.478Z,13.05
2023-05-17T12:20:22.992Z,13.41
2023-05-17T12:22:55.441Z,13.20
2023-05-17T12:25:21.885Z,12.75
2023-05-17T12:27:48.144Z,13.25
2023-05-17T12:30:14.867Z,13.13
2023-05-17T12:32:41.209Z,13.68
2023-05-17T12:35:07.905Z,14.06
2023-05-17T12:37:49.357Z,13.26
2023-05-17T12:40:15.655Z,13.61
2023-05-17T12:42:42.633Z,13.91
2023-05-17T12:45:09.358Z,13.33
2023-05-17T12:47:35.676Z,13.33
2023-05-17T12:50:01.922Z,12.94
2023-05-17T12:52:33.046Z,12.74
2023-05-17T12:54:59.316Z,13.09
2023-05-17T12:57:25.574Z,12.85
2023-05-17T12:59:52.138Z,12.72
2023-05-17T13:02:21.500Z,13.14
2023-05-17T13:04:47.883Z,13.18
2023-05-17T13:07:20.449Z,13.10
2023-05-17T13:09:46.872Z,12.71
2023-05-17T13:12:17.753Z,12.94
2023-05-17T13:14:46.520Z,13.14
2023-05-17T13:17:22.699Z,12.90
2023-05-17T13:19:49.068Z,12.79
2023-05-17T13:22:15.410Z,12.99
2023-05-17T13:24:41.729Z,13.02
2023-05-17T13:27:07.994Z,13.06
2023-05-17T13:29:39.349Z,13.05
2023-05-17T13:32:06.759Z,13.07
2023-05-17T13:34:33.023Z,12.77
2023-05-17T13:36:59.281Z,12.55
2023-05-17T13:39:25.601Z,12.43
2023-05-17T13:41:52.050Z,12.48
2023-05-17T13:44:18.319Z,12.54
2023-05-17T13:46:44.563Z,12.77
2023-05-17T13:49:10.909Z,12.68
2023-05-17T13:51:37.265Z,12.48
2023-05-17T13:54:05.185Z,12.56
2023-05-17T13:56:31.810Z,12.15
2023-05-17T13:58:58.072Z,12.49
2023-05-17T14:01:24.466Z,12.66
2023-05-17T14:03:50.765Z,12.80
2023-05-17T14:06:17.162Z,13.30
2023-05-17T14:08:43.466Z,13.29
2023-05-17T14:11:09.769Z,13.27
2023-05-17T14:13:36.044Z,12.84
2023-05-17T14:16:02.275Z,12.83
2023-05-17T14:18:28.590Z,13.41
2023-05-17T14:20:54.976Z,13.30
2023-05-17T14:23:21.239Z,13.21
2023-05-17T14:25:47.501Z,13.41
2023-05-17T14:28:13.758Z,13.20
2023-05-17T14:30:40.025Z,12.85
2023-05-17T14:33:06.349Z,13.17
2023-05-17T14:35:32.670Z,13.04
2023-05-17T14:37:58.987Z,13.21
2023-05-17T14:40:25.262Z,13.35
2023-05-17T14:42:53.228Z,13.38
2023-05-17T14:45:19.499Z,13.38
2023-05-17T14:47:45.775Z,13.04
2023-05-17T14:50:12.070Z,12.80
2023-05-17T14:52:38.331Z,12.81
2023-05-17T14:55:04.763Z,12.63
2023-05-17T14:57:31.014Z,12.59
2023-05-17T14:59:57.307Z,12.54
2023-05-17T15:02:23.563Z,12.60
2023-05-17T15:04:49.913Z,12.56
2023-05-17T15:07:16.257Z,12.66
2023-05-17T15:09:42.541Z,12.49
2023-05-17T15:12:09.623Z,12.75
2023-05-17T15:14:36.680Z,12.92
2023-05-17T15:17:03.007Z,12.95
2023-05-17T15:19:29.324Z,13.04
2023-05-17T15:21:55.600Z,13.46
2023-05-17T15:24:21.874Z,13.32
2023-05-17T15:26:48.115Z,13.57
2023-05-17T15:29:14.376Z,13.43
2023-05-17T15:31:40.624Z,13.19
2023-05-17T15:34:06.936Z,13.64
2023-05-17T15:36:33.214Z,13.46
2023-05-17T15:38:59.480Z,12.79
2023-05-17T15:41:26.588Z,12.35
2023-05-17T15:43:54.111Z,12.63
2023-05-17T15:46:20.652Z,12.87
2023-05-17T15:48:47.070Z,12.84
2023-05-17T15:51:13.399Z,12.57
2023-05-17T15:53:39.664Z,12.52
2023-05-17T15:56:06.050Z,13.03
2023-05-17T15:58:32.308Z,13.15
2023-05-17T16:00:59.082Z,13.08
2023-05-17T16:03:25.334Z,12.80
2023-05-17T16:05:51.708Z,12.38
2023-05-17T16:08:18.034Z,12.62
2023-05-17T16:10:44.286Z,12.54
2023-05-17T16:13:10.533Z,12.48
2023-05-17T16:15:36.794Z,12.80
2023-05-17T16:18:03.092Z,12.58
2023-05-17T16:20:29.427Z,12.34
2023-05-17T16:22:55.682Z,12.70
2023-05-17T16:25:22.479Z,12.65
2023-05-17T16:27:48.747Z,12.76
2023-05-17T16:30:15.168Z,12.70
2023-05-17T16:32:41.615Z,12.34
2023-05-17T16:35:08.260Z,12.26
2023-05-17T16:37:34.503Z,12.60
2023-05-17T16:40:00.780Z,12.50
2023-05-17T16:42:27.037Z,12.63
2023-05-17T16:44:53.283Z,12.61
2023-05-17T16:47:19.878Z,12.49
2023-05-17T16:49:46.136Z,12.15
2023-05-17T16:52:12.390Z,12.42
2023-05-17T16:54:38.649Z,12.44
2023-05-17T16:57:07.924Z,12.01
2023-05-17T16:59:34.591Z,12.10
2023-05-17T17:02:00.890Z,12.28
2023-05-17T17:04:27.265Z,12.46
2023-05-17T17:06:53.535Z,12.05
2023-05-17T17:09:19.794Z,11.86
2023-05-17T17:11:46.086Z,11.69
2023-05-17T17:14:12.337Z,11.51
2023-05-17T17:16:38.688Z,11.74
2023-05-17T17:19:05.092Z,11.81
2023-05-17T17:21:31.399Z,11.87
2023-05-17T17:23:57.662Z,11.95
2023-05-17T17:26:23.944Z,11.91
2023-05-17T17:28:50.210Z,11.71
2023-05-17T17:31:16.560Z,11.75
2023-05-17T17:33:42.817Z,11.75
2023-05-17T17:36:09.228Z,11.73
2023-05-17T17:38:35.613Z,11.83
2023-05-17T17:41:01.857Z,11.70
2023-05-17T17:43:28.097Z,11.72
2023-05-17T17:45:54.342Z,11.66
2023-05-17T17:48:20.579Z,11.56
2023-05-17T17:50:46.850Z,11.68
2023-05-17T17:53:13.094Z,11.60
2023-05-17T17:55:39.363Z,11.45
2023-05-17T17:58:05.617Z,11.57
2023-05-17T18:00:31.989Z,11.13
2023-05-17T18:02:58.473Z,11.16
2023-05-17T18:05:24.818Z,11.04
2023-05-17T18:07:51.090Z,11.07
2023-05-17T18:10:17.405Z,10.95
2023-05-17T18:12:43.646Z,10.88
2023-05-17T18:15:10.171Z,10.81
2023-05-17T18:17:36.497Z,10.77
2023-05-17T18:20:02.829Z,10.70
2023-05-17T18:22:29.094Z,10.57
2023-05-17T18:24:55.340Z,10.60
2023-05-17T18:27:21.590Z,10.44
2023-05-17T18:29:47.882Z,10.43
2023-05-17T18:32:14.195Z,10.33
2023-05-17T18:34:40.500Z,10.12
2023-05-17T18:37:06.763Z,10.00
2023-05-17T18:39:33.011Z,10.04
2023-05-17T18:41:59.278Z,10.00
2023-05-17T18:44:25.526Z,10.05
2023-05-17T18:46:51.824Z,9.97
2023-05-17T18:49:18.124Z,10.03
2023-05-17T18:51:44.450Z,9.93
2023-05-17T18:54:10.709Z,9.94
2023-05-17T18:56:36.978Z,9.74
2023-05-17T18:59:03.238Z,9.49
2023-05-17T19:01:29.589Z,9.61
2023-05-17T19:03:55.947Z,9.45
2023-05-17T19:06:22.578Z,9.40
2023-05-17T19:08:49.181Z,9.43
2023-05-17T19:11:15.541Z,9.57
2023-05-17T19:13:41.787Z,9.58
2023-05-17T19:16:08.073Z,9.56
2023-05-17T19:18:34.489Z,9.62
2023-05-17T19:21:00.815Z,9.59
2023-05-17T19:23:27.048Z,9.44
2023-05-17T19:25:53.440Z,9.58
2023-05-17T19:28:19.682Z,9.54
2023-05-17T19:30:45.944Z,9.52
2023-05-17T19:33:12.301Z,9.48
2023-05-17T19:35:38.652Z,9.49
2023-05-17T19:38:04.898Z,9.52
2023-05-17T19:40:31.411Z,9.38
2023-05-17T19:42:57.840Z,9.35
2023-05-17T19:45:24.160Z,9.50
2023-05-17T19:47:50.489Z,9.47
2023-05-17T19:50:16.785Z,9.53
2023-05-17T19:52:43.054Z,9.41
2023-05-17T19:55:09.337Z,9.44
2023-05-17T19:57:35.607Z,9.47
2023-05-17T20:00:01.969Z,9.41
2023-05-17T20:02:28.296Z,9.43
2023-05-17T20:04:54.587Z,9.28
2023-05-17T20:07:20.829Z,9.21
2023-05-17T20:09:47.064Z,9.14
2023-05-17T20:12:13.522Z,9.21
2023-05-17T20:14:39.899Z,9.13
2023-05-17T20:17:06.166Z,9.07
2023-05-17T20:19:32.514Z,8.86
2023-05-17T20:21:58.894Z,8.79
2023-05-17T20:24:25.142Z,8.96
2023-05-17T20:26:51.414Z,9.05
2023-05-17T20:29:17.668Z,8.98
2023-05-17T20:31:43.976Z,9.03
2023-05-17T20:34:10.251Z,9.05
2023-05-17T20:36:36.503Z,8.99
2023-05-17T20:39:02.757Z,9.00
2023-05-17T20:41:29.006Z,8.92
2023-05-17T20:43:55.248Z,8.71
2023-05-17T20:46:21.544Z,8.76
2023-05-17T20:48:47.929Z,8.62
2023-05-17T20:51:14.220Z,8.76
2023-05-17T20:53:40.491Z,8.51
2023-05-17T20:56:06.813Z,8.69
2023-05-17T20:58:33.068Z,8.72
2023-05-17T21:00:59.575Z,8.65
2023-05-17T21:03:26.908Z,8.71
2023-05-17T21:05:53.886Z,8.55
2023-05-17T21:08:20.136Z,8.37
2023-05-17T21:10:46.599Z,8.34
2023-05-17T21:13:12.915Z,8.47
2023-05-17T21:15:39.183Z,8.50
2023-05-17T21:18:05.457Z,8.30
2023-05-17T21:20:31.755Z,7.99
2023-05-17T21:22:58.017Z,8.00
2023-05-17T21:25:24.269Z,8.23
2023-05-17T21:27:50.533Z,8.32
2023-05-17T21:30:16.814Z,8.34
2023-05-17T21:32:43.090Z,8.23
2023-05-17T21:35:09.397Z,7.26
2023-05-17T21:37:36.511Z,7.16
2023-05-17T21:40:02.806Z,7.66
2023-05-17T21:42:29.091Z,7.99
2023-05-17T21:44:55.360Z,8.06
2023-05-17T21:47:21.628Z,8.01
2023-05-17T21:49:47.870Z,8.04
2023-05-17T21:52:14.154Z,7.75
2023-05-17T21:54:40.424Z,7.84
2023-05-17T21:57:06.784Z,7.87
2023-05-17T21:59:33.133Z,7.88
2023-05-17T22:02:02.374Z,7.92
2023-05-17T22:04:28.634Z,7.70
2023-05-17T22:06:55.435Z,7.61
2023-05-17T22:09:21.702Z,7.63
2023-05-17T22:11:47.995Z,7.64
2023-05-17T22:14:14.262Z,7.66
2023-05-17T22:16:40.518Z,7.68
2023-05-17T22:19:06.806Z,7.63
2023-05-17T22:21:33.115Z,7.30
2023-05-17T22:23:59.380Z,7.39
2023-05-17T22:26:25.642Z,7.20
2023-05-17T22:28:51.900Z,7.23
2023-05-17T22:31:18.556Z,7.34
2023-05-17T22:33:45.045Z,7.35
2023-05-17T22:36:11.324Z,7.32
2023-05-17T22:38:37.583Z,6.59
2023-05-17T22:41:03.842Z,6.75
2023-05-17T22:43:30.255Z,6.99
2023-05-17T22:45:56.544Z,7.13
2023-05-17T22:48:22.798Z,7.02
2023-05-17T22:50:49.043Z,7.03
2023-05-17T22:53:15.561Z,6.68
2023-05-17T22:55:42.072Z,6.88
2023-05-17T22:58:08.337Z,6.74
2023-05-17T23:00:34.604Z,6.13
2023-05-17T23:03:00.930Z,6.12
2023-05-17T23:05:27.204Z,6.49
2023-05-17T23:07:53.468Z,6.23
2023-05-17T23:10:19.730Z,6.38
2023-05-17T23:12:45.991Z,5.12
2023-05-17T23:15:12.241Z,5.98
2023-05-17T23:17:38.577Z,6.08
2023-05-17T23:20:05.081Z,6.29
2023-05-17T23:22:31.358Z,6.30
2023-05-17T23:24:57.972Z,5.51
2023-05-17T23:27:24.220Z,5.89
2023-05-17T23:29:50.468Z,6.23
2023-05-17T23:32:16.750Z,6.29
2023-05-17T23:34:43.023Z,6.34
2023-05-17T23:37:09.300Z,6.33
2023-05-17T23:39:35.538Z,6.14
2023-05-17T23:42:01.798Z,6.29
2023-05-17T23:44:28.056Z,6.06
2023-05-17T23:46:54.316Z,5.83
2023-05-17T23:49:20.554Z,5.50
2023-05-17T23:51:46.808Z,5.80
2023-05-17T23:54:13.074Z,6.03
2023-05-17T23:56:39.338Z,6.15
2023-05-17T23:59:05.594Z,6.02
